Airfield :
LOGIN :

Register | Disclaimer

   EN    FR    IT 

 










Legend :    VFR   Marginal VFR   IFR   Intensive IFR   Very Intensive IFR
Visi :
Ceiling :
>= 8 km
>= 3000ft
5 to 8 km
1000 to 3000 ft
1500m to 5 km
500 to 1000 ft
800 to 1500m
200 to 500 ft
< 800m
< 200 ft
Symbols :   Thunderstorms  Fog  Heavy snow  Heavy precipitations  Wind > 20 kt
SIGMETs :     Misc.  Thunderstorms  Icing  Turbulence  Mountain Waves  Volcanic Ashes






- Airport Elevation : 191 ft
- IATA code : RNB


ESDF - Ronneby

CURRENT METAR :
  • 191220Z 17011KT 4000 RADZ SCT003 BKN005 06/06 Q1010

EXPIRED METARs :
  • 191150Z 18011KT 7000 -RADZ SCT004 BKN006 06/06 Q1010
  • 191120Z 18012KT 9999 -RA BKN010 06/05 Q1010
  • 191050Z 17013KT 9999 -RA SCT015 BKN025 06/05 Q1010
  • 191020Z 18013KT 9999 -RA SCT017 BKN025 06/05 Q1010
  • 190950Z 18014G24KT 9999 -RA FEW018 BKN022 06/04 Q1010

TAF AMD TAF ESDF
Valid from the 19 at 12:00 until the 19 at 21:00 UTC


191225Z 1912/1921 18012G23KT 9999 BKN018
PROB40 1912/1918 2000 -SHRA BKN004 BKN014TCU RMK MIL



MET'MAP, your aeronautical weather chart ! - Copyright ORBIFLY December 2007 - Disclaimer

ORBIFLY MET'MAP TEAM :

Programming & Development : Alexandra Zaïnal
Concept & Development : Baudouin d'Aumeries
Co-Development & Prog : Marc-Olivier Méhu
Technical & hardware support : Manuel Goepfert

Contact : metmap@orbifly.com




SOURCES & CREDITS :

   NOAA